sensor_id;sensor_type;location;lat;lon;timestamp;temperature;humidity
7388;DHT22;3735;50.136;11.062;2023-06-05T00:00:57;10.60;99.90
7388;DHT22;3735;50.136;11.062;2023-06-05T00:03:22;10.50;99.90
7388;DHT22;3735;50.136;11.062;2023-06-05T00:05:49;10.50;99.90
7388;DHT22;3735;50.136;11.062;2023-06-05T00:08:15;10.40;99.90
7388;DHT22;3735;50.136;11.062;2023-06-05T00:10:42;10.40;99.90
7388;DHT22;3735;50.136;11.062;2023-06-05T00:13:08;10.30;99.90
7388;DHT22;3735;50.136;11.062;2023-06-05T00:15:33;10.30;99.90
7388;DHT22;3735;50.136;11.062;2023-06-05T00:18:01;10.20;99.90
7388;DHT22;3735;50.136;11.062;2023-06-05T00:20:29;10.10;99.90
7388;DHT22;3735;50.136;11.062;2023-06-05T00:22:55;10.10;99.90
7388;DHT22;3735;50.136;11.062;2023-06-05T00:25:21;10.10;99.90
7388;DHT22;3735;50.136;11.062;2023-06-05T00:27:47;10.00;99.90
7388;DHT22;3735;50.136;11.062;2023-06-05T00:30:13;10.00;99.90
7388;DHT22;3735;50.136;11.062;2023-06-05T00:32:39;10.00;99.90
7388;DHT22;3735;50.136;11.062;2023-06-05T00:35:06;10.00;99.90
7388;DHT22;3735;50.136;11.062;2023-06-05T00:37:33;10.00;99.90
7388;DHT22;3735;50.136;11.062;2023-06-05T00:39:59;10.00;99.90
7388;DHT22;3735;50.136;11.062;2023-06-05T00:42:26;10.00;99.90
7388;DHT22;3735;50.136;11.062;2023-06-05T00:44:52;10.00;99.90
7388;DHT22;3735;50.136;11.062;2023-06-05T00:47:18;10.00;99.90
7388;DHT22;3735;50.136;11.062;2023-06-05T00:49:44;10.00;99.90
7388;DHT22;3735;50.136;11.062;2023-06-05T00:52:11;10.10;99.90
7388;DHT22;3735;50.136;11.062;2023-06-05T00:54:37;10.10;99.90
7388;DHT22;3735;50.136;11.062;2023-06-05T00:57:05;10.10;99.90
7388;DHT22;3735;50.136;11.062;2023-06-05T00:59:33;10.10;99.90
7388;DHT22;3735;50.136;11.062;2023-06-05T01:02:00;10.20;99.90
7388;DHT22;3735;50.136;11.062;2023-06-05T01:04:28;10.20;99.90
7388;DHT22;3735;50.136;11.062;2023-06-05T01:06:55;10.20;99.90
7388;DHT22;3735;50.136;11.062;2023-06-05T01:09:23;10.10;99.90
7388;DHT22;3735;50.136;11.062;2023-06-05T01:12:17;10.30;99.90
7388;DHT22;3735;50.136;11.062;2023-06-05T01:14:51;10.40;99.90
7388;DHT22;3735;50.136;11.062;2023-06-05T01:17:24;10.30;99.90
7388;DHT22;3735;50.136;11.062;2023-06-05T01:19:56;10.30;99.90
7388;DHT22;3735;50.136;11.062;2023-06-05T01:22:34;10.30;99.90
7388;DHT22;3735;50.136;11.062;2023-06-05T01:25:06;10.20;99.90
7388;DHT22;3735;50.136;11.062;2023-06-05T01:27:52;10.20;99.90
7388;DHT22;3735;50.136;11.062;2023-06-05T01:30:40;10.20;99.90
7388;DHT22;3735;50.136;11.062;2023-06-05T01:33:19;10.10;99.90
7388;DHT22;3735;50.136;11.062;2023-06-05T01:35:50;10.10;99.90
7388;DHT22;3735;50.136;11.062;2023-06-05T01:38:19;10.10;99.90
7388;DHT22;3735;50.136;11.062;2023-06-05T01:40:47;10.10;99.90
7388;DHT22;3735;50.136;11.062;2023-06-05T01:43:15;10.00;99.90
7388;DHT22;3735;50.136;11.062;2023-06-05T01:45:43;9.90;99.90
7388;DHT22;3735;50.136;11.062;2023-06-05T01:48:09;9.80;99.90
7388;DHT22;3735;50.136;11.062;2023-06-05T01:50:39;9.80;99.90
7388;DHT22;3735;50.136;11.062;2023-06-05T01:53:07;9.80;99.90
7388;DHT22;3735;50.136;11.062;2023-06-05T01:55:35;9.70;99.90
7388;DHT22;3735;50.136;11.062;2023-06-05T01:58:04;9.60;99.90
7388;DHT22;3735;50.136;11.062;2023-06-05T02:00:30;9.60;99.90
7388;DHT22;3735;50.136;11.062;2023-06-05T02:02:56;9.50;99.90
7388;DHT22;3735;50.136;11.062;2023-06-05T02:05:22;9.40;99.90
7388;DHT22;3735;50.136;11.062;2023-06-05T02:07:49;9.20;99.90
7388;DHT22;3735;50.136;11.062;2023-06-05T02:10:20;9.10;99.90
7388;DHT22;3735;50.136;11.062;2023-06-05T02:12:47;9.00;99.90
7388;DHT22;3735;50.136;11.062;2023-06-05T02:15:13;9.00;99.90
7388;DHT22;3735;50.136;11.062;2023-06-05T02:17:40;8.90;99.90
7388;DHT22;3735;50.136;11.062;2023-06-05T02:20:19;8.80;99.90
7388;DHT22;3735;50.136;11.062;2023-06-05T02:22:48;8.60;99.90
7388;DHT22;3735;50.136;11.062;2023-06-05T02:25:17;8.60;99.90
7388;DHT22;3735;50.136;11.062;2023-06-05T02:27:44;8.60;99.90
7388;DHT22;3735;50.136;11.062;2023-06-05T02:30:11;8.60;99.90
7388;DHT22;3735;50.136;11.062;2023-06-05T02:32:37;8.60;99.90
7388;DHT22;3735;50.136;11.062;2023-06-05T02:35:07;8.60;99.90
7388;DHT22;3735;50.136;11.062;2023-06-05T02:37:34;8.60;99.90
7388;DHT22;3735;50.136;11.062;2023-06-05T02:40:05;8.60;99.90
7388;DHT22;3735;50.136;11.062;2023-06-05T02:42:34;8.50;99.90
7388;DHT22;3735;50.136;11.062;2023-06-05T02:45:01;8.50;99.90
7388;DHT22;3735;50.136;11.062;2023-06-05T02:47:27;8.50;99.90
7388;DHT22;3735;50.136;11.062;2023-06-05T02:49:54;8.40;99.90
7388;DHT22;3735;50.136;11.062;2023-06-05T02:52:19;8.40;99.90
7388;DHT22;3735;50.136;11.062;2023-06-05T02:54:46;8.40;99.90
7388;DHT22;3735;50.136;11.062;2023-06-05T02:57:12;8.40;99.90
7388;DHT22;3735;50.136;11.062;2023-06-05T02:59:37;8.50;99.90
7388;DHT22;3735;50.136;11.062;2023-06-05T03:02:07;8.50;99.90
7388;DHT22;3735;50.136;11.062;2023-06-05T03:04:34;8.50;99.90
7388;DHT22;3735;50.136;11.062;2023-06-05T03:07:00;8.60;99.90
7388;DHT22;3735;50.136;11.062;2023-06-05T03:09:29;8.80;99.90
7388;DHT22;3735;50.136;11.062;2023-06-05T03:11:56;8.90;99.90
7388;DHT22;3735;50.136;11.062;2023-06-05T03:14:23;9.10;99.90
7388;DHT22;3735;50.136;11.062;2023-06-05T03:16:49;9.30;99.90
7388;DHT22;3735;50.136;11.062;2023-06-05T03:19:15;9.40;99.90
7388;DHT22;3735;50.136;11.062;2023-06-05T03:21:40;9.50;99.90
7388;DHT22;3735;50.136;11.062;2023-06-05T03:24:08;9.60;99.90
7388;DHT22;3735;50.136;11.062;2023-06-05T03:26:38;9.70;99.90
7388;DHT22;3735;50.136;11.062;2023-06-05T03:29:05;9.80;99.90
7388;DHT22;3735;50.136;11.062;2023-06-05T03:31:32;9.90;99.90
7388;DHT22;3735;50.136;11.062;2023-06-05T03:33:57;10.00;99.90
7388;DHT22;3735;50.136;11.062;2023-06-05T03:36:26;10.00;99.90
7388;DHT22;3735;50.136;11.062;2023-06-05T03:38:54;10.00;99.90
7388;DHT22;3735;50.136;11.062;2023-06-05T03:41:20;10.10;99.90
7388;DHT22;3735;50.136;11.062;2023-06-05T03:43:47;10.00;99.90
7388;DHT22;3735;50.136;11.062;2023-06-05T03:46:15;10.00;99.90
7388;DHT22;3735;50.136;11.062;2023-06-05T03:48:48;10.00;99.90
7388;DHT22;3735;50.136;11.062;2023-06-05T03:51:15;9.90;99.90
7388;DHT22;3735;50.136;11.062;2023-06-05T03:53:44;9.90;99.90
7388;DHT22;3735;50.136;11.062;2023-06-05T03:56:10;9.90;99.90
7388;DHT22;3735;50.136;11.062;2023-06-05T03:58:37;10.00;99.90
7388;DHT22;3735;50.136;11.062;2023-06-05T04:01:05;10.00;99.90
7388;DHT22;3735;50.136;11.062;2023-06-05T04:03:31;10.10;99.90
7388;DHT22;3735;50.136;11.062;2023-06-05T04:05:57;10.10;99.90
7388;DHT22;3735;50.136;11.062;2023-06-05T04:08:23;10.20;99.90
7388;DHT22;3735;50.136;11.062;2023-06-05T04:10:49;10.20;99.90
7388;DHT22;3735;50.136;11.062;2023-06-05T04:13:15;10.20;99.90
7388;DHT22;3735;50.136;11.062;2023-06-05T04:15:41;10.30;99.90
7388;DHT22;3735;50.136;11.062;2023-06-05T04:18:09;10.30;99.90
7388;DHT22;3735;50.136;11.062;2023-06-05T04:20:35;10.30;99.90
7388;DHT22;3735;50.136;11.062;2023-06-05T04:23:01;10.40;99.90
7388;DHT22;3735;50.136;11.062;2023-06-05T04:25:27;10.40;99.90
7388;DHT22;3735;50.136;11.062;2023-06-05T04:27:54;10.50;99.90
7388;DHT22;3735;50.136;11.062;2023-06-05T04:30:21;10.60;99.90
7388;DHT22;3735;50.136;11.062;2023-06-05T04:32:47;10.80;99.90
7388;DHT22;3735;50.136;11.062;2023-06-05T04:35:20;11.20;99.90
7388;DHT22;3735;50.136;11.062;2023-06-05T04:37:46;11.60;99.90
7388;DHT22;3735;50.136;11.062;2023-06-05T04:40:13;11.90;99.90
7388;DHT22;3735;50.136;11.062;2023-06-05T04:42:41;12.20;99.90
7388;DHT22;3735;50.136;11.062;2023-06-05T04:45:07;12.30;99.90
7388;DHT22;3735;50.136;11.062;2023-06-05T04:47:34;12.50;99.90
7388;DHT22;3735;50.136;11.062;2023-06-05T04:50:05;12.60;99.90
7388;DHT22;3735;50.136;11.062;2023-06-05T04:52:33;12.90;99.90
7388;DHT22;3735;50.136;11.062;2023-06-05T04:55:05;13.50;99.90
7388;DHT22;3735;50.136;11.062;2023-06-05T04:57:31;14.20;99.90
7388;DHT22;3735;50.136;11.062;2023-06-05T04:59:57;14.90;99.90
7388;DHT22;3735;50.136;11.062;2023-06-05T05:02:23;15.60;99.90
7388;DHT22;3735;50.136;11.062;2023-06-05T05:04:49;16.70;99.90
7388;DHT22;3735;50.136;11.062;2023-06-05T05:07:15;17.00;99.90
7388;DHT22;3735;50.136;11.062;2023-06-05T05:09:43;16.70;99.90
7388;DHT22;3735;50.136;11.062;2023-06-05T05:12:09;16.10;99.90
7388;DHT22;3735;50.136;11.062;2023-06-05T05:14:35;15.80;99.90
7388;DHT22;3735;50.136;11.062;2023-06-05T05:17:02;15.40;99.90
7388;DHT22;3735;50.136;11.062;2023-06-05T05:19:29;15.10;99.90
7388;DHT22;3735;50.136;11.062;2023-06-05T05:21:55;15.10;99.90
7388;DHT22;3735;50.136;11.062;2023-06-05T05:24:21;15.10;99.90
7388;DHT22;3735;50.136;11.062;2023-06-05T05:26:49;15.10;99.90
7388;DHT22;3735;50.136;11.062;2023-06-05T05:29:16;15.30;99.90
7388;DHT22;3735;50.136;11.062;2023-06-05T05:31:42;15.80;99.90
7388;DHT22;3735;50.136;11.062;2023-06-05T05:34:08;16.50;99.90
7388;DHT22;3735;50.136;11.062;2023-06-05T05:36:34;16.90;99.90
7388;DHT22;3735;50.136;11.062;2023-06-05T05:39:02;17.10;99.90
7388;DHT22;3735;50.136;11.062;2023-06-05T05:41:28;17.60;99.90
7388;DHT22;3735;50.136;11.062;2023-06-05T05:43:54;18.20;99.90
7388;DHT22;3735;50.136;11.062;2023-06-05T05:46:20;18.90;99.90
7388;DHT22;3735;50.136;11.062;2023-06-05T05:48:46;19.40;99.90
7388;DHT22;3735;50.136;11.062;2023-06-05T05:51:12;19.90;99.90
7388;DHT22;3735;50.136;11.062;2023-06-05T05:53:37;20.50;99.90
7388;DHT22;3735;50.136;11.062;2023-06-05T05:56:03;20.80;99.90
7388;DHT22;3735;50.136;11.062;2023-06-05T05:58:30;20.60;99.90
7388;DHT22;3735;50.136;11.062;2023-06-05T06:00:57;20.40;99.90
7388;DHT22;3735;50.136;11.062;2023-06-05T06:03:25;20.30;99.90
7388;DHT22;3735;50.136;11.062;2023-06-05T06:05:52;20.30;99.90
7388;DHT22;3735;50.136;11.062;2023-06-05T06:08:18;20.20;99.90
7388;DHT22;3735;50.136;11.062;2023-06-05T06:10:45;20.20;99.90
7388;DHT22;3735;50.136;11.062;2023-06-05T06:13:11;20.50;99.90
7388;DHT22;3735;50.136;11.062;2023-06-05T06:15:38;20.90;99.90
7388;DHT22;3735;50.136;11.062;2023-06-05T06:18:07;21.40;99.90
7388;DHT22;3735;50.136;11.062;2023-06-05T06:20:33;22.10;99.90
7388;DHT22;3735;50.136;11.062;2023-06-05T06:23:00;22.80;99.90
7388;DHT22;3735;50.136;11.062;2023-06-05T06:25:28;23.50;99.90
7388;DHT22;3735;50.136;11.062;2023-06-05T06:27:58;23.70;99.90
7388;DHT22;3735;50.136;11.062;2023-06-05T06:30:25;24.20;99.90
7388;DHT22;3735;50.136;11.062;2023-06-05T06:32:53;24.40;99.90
7388;DHT22;3735;50.136;11.062;2023-06-05T06:35:23;24.50;99.90
7388;DHT22;3735;50.136;11.062;2023-06-05T06:37:53;24.60;99.90
7388;DHT22;3735;50.136;11.062;2023-06-05T06:40:23;25.30;99.90
7388;DHT22;3735;50.136;11.062;2023-06-05T06:42:49;26.30;99.90
7388;DHT22;3735;50.136;11.062;2023-06-05T06:45:16;27.20;99.90
7388;DHT22;3735;50.136;11.062;2023-06-05T06:47:43;27.90;99.90
7388;DHT22;3735;50.136;11.062;2023-06-05T06:50:09;28.70;99.90
7388;DHT22;3735;50.136;11.062;2023-06-05T06:52:35;29.40;99.90
7388;DHT22;3735;50.136;11.062;2023-06-05T06:55:01;30.20;99.90
7388;DHT22;3735;50.136;11.062;2023-06-05T06:57:27;30.50;99.90
7388;DHT22;3735;50.136;11.062;2023-06-05T06:59:53;31.00;99.90
7388;DHT22;3735;50.136;11.062;2023-06-05T07:02:20;31.50;99.90
7388;DHT22;3735;50.136;11.062;2023-06-05T07:04:48;32.10;99.90
7388;DHT22;3735;50.136;11.062;2023-06-05T07:07:16;32.70;99.90
7388;DHT22;3735;50.136;11.062;2023-06-05T07:09:44;33.10;99.90
7388;DHT22;3735;50.136;11.062;2023-06-05T07:12:12;33.40;99.90
7388;DHT22;3735;50.136;11.062;2023-06-05T07:14:40;33.80;99.90
7388;DHT22;3735;50.136;11.062;2023-06-05T07:17:07;33.80;99.90
7388;DHT22;3735;50.136;11.062;2023-06-05T07:19:34;33.50;99.90
7388;DHT22;3735;50.136;11.062;2023-06-05T07:22:03;33.50;99.90
7388;DHT22;3735;50.136;11.062;2023-06-05T07:24:33;33.30;99.90
7388;DHT22;3735;50.136;11.062;2023-06-05T07:27:01;33.40;99.90
7388;DHT22;3735;50.136;11.062;2023-06-05T07:29:28;33.50;99.90
7388;DHT22;3735;50.136;11.062;2023-06-05T07:31:56;33.10;99.90
7388;DHT22;3735;50.136;11.062;2023-06-05T07:34:24;32.70;99.90
7388;DHT22;3735;50.136;11.062;2023-06-05T07:36:51;32.70;99.90
7388;DHT22;3735;50.136;11.062;2023-06-05T07:39:19;33.10;99.90
7388;DHT22;3735;50.136;11.062;2023-06-05T07:41:46;33.40;99.90
7388;DHT22;3735;50.136;11.062;2023-06-05T07:44:14;33.70;99.90
7388;DHT22;3735;50.136;11.062;2023-06-05T07:46:42;34.00;99.90
7388;DHT22;3735;50.136;11.062;2023-06-05T07:49:08;33.60;99.90
7388;DHT22;3735;50.136;11.062;2023-06-05T07:51:38;33.00;99.90
7388;DHT22;3735;50.136;11.062;2023-06-05T07:54:06;33.20;99.90
7388;DHT22;3735;50.136;11.062;2023-06-05T07:56:33;33.20;99.90
7388;DHT22;3735;50.136;11.062;2023-06-05T07:59:00;33.00;99.90
7388;DHT22;3735;50.136;11.062;2023-06-05T08:01:29;32.90;99.90
7388;DHT22;3735;50.136;11.062;2023-06-05T08:03:55;33.10;99.90
7388;DHT22;3735;50.136;11.062;2023-06-05T08:06:23;33.10;99.90
7388;DHT22;3735;50.136;11.062;2023-06-05T08:08:52;32.40;99.90
7388;DHT22;3735;50.136;11.062;2023-06-05T08:11:18;31.10;99.90
7388;DHT22;3735;50.136;11.062;2023-06-05T08:13:44;29.70;99.90
7388;DHT22;3735;50.136;11.062;2023-06-05T08:16:10;28.40;99.90
7388;DHT22;3735;50.136;11.062;2023-06-05T08:18:36;27.50;99.90
7388;DHT22;3735;50.136;11.062;2023-06-05T08:21:02;26.70;99.90
7388;DHT22;3735;50.136;11.062;2023-06-05T08:23:28;26.20;99.90
7388;DHT22;3735;50.136;11.062;2023-06-05T08:25:54;26.50;99.90
7388;DHT22;3735;50.136;11.062;2023-06-05T08:28:20;27.50;99.90
7388;DHT22;3735;50.136;11.062;2023-06-05T08:30:47;28.50;99.90
7388;DHT22;3735;50.136;11.062;2023-06-05T08:33:13;29.40;99.90
7388;DHT22;3735;50.136;11.062;2023-06-05T08:35:42;30.20;99.90
7388;DHT22;3735;50.136;11.062;2023-06-05T08:38:08;31.00;99.90
7388;DHT22;3735;50.136;11.062;2023-06-05T08:40:34;31.60;99.90
7388;DHT22;3735;50.136;11.062;2023-06-05T08:43:02;32.60;99.90
7388;DHT22;3735;50.136;11.062;2023-06-05T08:45:28;33.50;99.90
7388;DHT22;3735;50.136;11.062;2023-06-05T08:47:59;34.30;99.90
7388;DHT22;3735;50.136;11.062;2023-06-05T08:50:30;34.90;99.90
7388;DHT22;3735;50.136;11.062;2023-06-05T08:52:59;35.00;99.90
7388;DHT22;3735;50.136;11.062;2023-06-05T08:55:27;35.00;99.90
7388;DHT22;3735;50.136;11.062;2023-06-05T08:57:53;34.40;99.90
7388;DHT22;3735;50.136;11.062;2023-06-05T09:00:21;34.30;99.90
7388;DHT22;3735;50.136;11.062;2023-06-05T09:02:47;34.50;99.90
7388;DHT22;3735;50.136;11.062;2023-06-05T09:05:14;34.80;99.90
7388;DHT22;3735;50.136;11.062;2023-06-05T09:07:41;34.90;99.90
7388;DHT22;3735;50.136;11.062;2023-06-05T09:10:21;35.10;99.90
7388;DHT22;3735;50.136;11.062;2023-06-05T09:12:53;35.10;99.90
7388;DHT22;3735;50.136;11.062;2023-06-05T09:15:28;34.30;99.90
7388;DHT22;3735;50.136;11.062;2023-06-05T09:18:10;34.60;99.90
7388;DHT22;3735;50.136;11.062;2023-06-05T09:20:39;34.00;99.90
7388;DHT22;3735;50.136;11.062;2023-06-05T09:23:23;33.10;99.90
7388;DHT22;3735;50.136;11.062;2023-06-05T09:25:50;32.80;99.90
7388;DHT22;3735;50.136;11.062;2023-06-05T09:28:16;33.00;99.90
7388;DHT22;3735;50.136;11.062;2023-06-05T09:33:30;33.80;99.90
7388;DHT22;3735;50.136;11.062;2023-06-05T09:38:32;34.20;99.90
7388;DHT22;3735;50.136;11.062;2023-06-05T09:43:29;34.90;99.90
7388;DHT22;3735;50.136;11.062;2023-06-05T09:45:55;35.40;99.90
7388;DHT22;3735;50.136;11.062;2023-06-05T09:48:21;35.70;99.90
7388;DHT22;3735;50.136;11.062;2023-06-05T09:50:47;35.40;99.90
7388;DHT22;3735;50.136;11.062;2023-06-05T09:53:15;35.10;99.90
7388;DHT22;3735;50.136;11.062;2023-06-05T09:55:42;35.50;99.90
7388;DHT22;3735;50.136;11.062;2023-06-05T09:58:11;36.10;99.90
7388;DHT22;3735;50.136;11.062;2023-06-05T10:00:40;35.90;99.90
7388;DHT22;3735;50.136;11.062;2023-06-05T10:03:17;35.60;99.90
7388;DHT22;3735;50.136;11.062;2023-06-05T10:05:44;35.90;99.90
7388;DHT22;3735;50.136;11.062;2023-06-05T10:08:12;36.10;99.90
7388;DHT22;3735;50.136;11.062;2023-06-05T10:10:41;36.00;99.90
7388;DHT22;3735;50.136;11.062;2023-06-05T10:13:08;35.70;99.90
7388;DHT22;3735;50.136;11.062;2023-06-05T10:15:36;35.90;99.90
7388;DHT22;3735;50.136;11.062;2023-06-05T10:18:04;36.50;99.90
7388;DHT22;3735;50.136;11.062;2023-06-05T10:20:30;36.50;99.90
7388;DHT22;3735;50.136;11.062;2023-06-05T10:22:59;36.70;99.90
7388;DHT22;3735;50.136;11.062;2023-06-05T10:25:26;36.70;99.90
7388;DHT22;3735;50.136;11.062;2023-06-05T10:31:19;37.70;99.90
7388;DHT22;3735;50.136;11.062;2023-06-05T10:34:05;36.50;99.90
7388;DHT22;3735;50.136;11.062;2023-06-05T10:39:23;35.80;99.90
7388;DHT22;3735;50.136;11.062;2023-06-05T10:41:51;35.80;99.90
7388;DHT22;3735;50.136;11.062;2023-06-05T10:44:17;35.70;99.90
7388;DHT22;3735;50.136;11.062;2023-06-05T10:46:43;35.10;99.90
7388;DHT22;3735;50.136;11.062;2023-06-05T10:49:15;34.80;99.90
7388;DHT22;3735;50.136;11.062;2023-06-05T10:51:49;35.70;99.90
7388;DHT22;3735;50.136;11.062;2023-06-05T10:57:01;34.00;99.90
7388;DHT22;3735;50.136;11.062;2023-06-05T10:59:33;34.30;99.90
7388;DHT22;3735;50.136;11.062;2023-06-05T11:15:09;34.80;99.90
7388;DHT22;3735;50.136;11.062;2023-06-05T11:17:40;35.10;99.90
7388;DHT22;3735;50.136;11.062;2023-06-05T11:27:52;33.20;99.90
7388;DHT22;3735;50.136;11.062;2023-06-05T11:30:44;34.70;99.90
7388;DHT22;3735;50.136;11.062;2023-06-05T11:33:12;36.10;99.90
7388;DHT22;3735;50.136;11.062;2023-06-05T11:35:40;37.20;99.90
7388;DHT22;3735;50.136;11.062;2023-06-05T11:38:18;37.60;99.90
7388;DHT22;3735;50.136;11.062;2023-06-05T11:40:48;37.40;99.90
7388;DHT22;3735;50.136;11.062;2023-06-05T11:43:14;37.10;99.90
7388;DHT22;3735;50.136;11.062;2023-06-05T11:45:48;37.00;99.90
7388;DHT22;3735;50.136;11.062;2023-06-05T11:48:15;36.10;99.90
7388;DHT22;3735;50.136;11.062;2023-06-05T11:53:20;32.80;99.90
7388;DHT22;3735;50.136;11.062;2023-06-05T11:55:47;32.60;99.90
7388;DHT22;3735;50.136;11.062;2023-06-05T11:58:28;33.70;99.90
7388;DHT22;3735;50.136;11.062;2023-06-05T12:03:41;33.30;99.90
7388;DHT22;3735;50.136;11.062;2023-06-05T12:06:08;32.20;99.90
7388;DHT22;3735;50.136;11.062;2023-06-05T12:08:34;32.00;99.90
7388;DHT22;3735;50.136;11.062;2023-06-05T12:11:04;33.20;99.90
7388;DHT22;3735;50.136;11.062;2023-06-05T12:13:56;34.50;99.90
7388;DHT22;3735;50.136;11.062;2023-06-05T12:16:33;35.70;99.90
7388;DHT22;3735;50.136;11.062;2023-06-05T12:19:02;35.60;99.90
7388;DHT22;3735;50.136;11.062;2023-06-05T12:21:49;34.70;99.90
7388;DHT22;3735;50.136;11.062;2023-06-05T12:24:24;35.10;99.90
7388;DHT22;3735;50.136;11.062;2023-06-05T12:26:58;36.30;99.90
7388;DHT22;3735;50.136;11.062;2023-06-05T12:29:27;36.50;99.90
7388;DHT22;3735;50.136;11.062;2023-06-05T12:31:59;35.50;99.90
7388;DHT22;3735;50.136;11.062;2023-06-05T12:34:45;34.90;99.90
7388;DHT22;3735;50.136;11.062;2023-06-05T12:37:25;34.60;99.90
7388;DHT22;3735;50.136;11.062;2023-06-05T12:39:53;34.90;99.90
7388;DHT22;3735;50.136;11.062;2023-06-05T12:42:19;35.40;99.90
7388;DHT22;3735;50.136;11.062;2023-06-05T12:44:45;35.30;99.90
7388;DHT22;3735;50.136;11.062;2023-06-05T12:47:10;34.10;99.90
7388;DHT22;3735;50.136;11.062;2023-06-05T12:49:36;34.60;99.90
7388;DHT22;3735;50.136;11.062;2023-06-05T12:52:03;35.20;99.90
7388;DHT22;3735;50.136;11.062;2023-06-05T12:54:30;35.60;99.90
7388;DHT22;3735;50.136;11.062;2023-06-05T12:56:56;36.00;99.90
7388;DHT22;3735;50.136;11.062;2023-06-05T12:59:22;35.60;99.90
7388;DHT22;3735;50.136;11.062;2023-06-05T13:01:48;34.60;99.90
7388;DHT22;3735;50.136;11.062;2023-06-05T13:04:14;33.50;99.90
7388;DHT22;3735;50.136;11.062;2023-06-05T13:06:40;32.40;99.90
7388;DHT22;3735;50.136;11.062;2023-06-05T13:09:06;31.70;99.90
7388;DHT22;3735;50.136;11.062;2023-06-05T13:11:32;30.90;99.90
7388;DHT22;3735;50.136;11.062;2023-06-05T13:13:58;31.40;99.90
7388;DHT22;3735;50.136;11.062;2023-06-05T13:16:24;32.90;99.90
7388;DHT22;3735;50.136;11.062;2023-06-05T13:18:49;32.70;99.90
7388;DHT22;3735;50.136;11.062;2023-06-05T13:21:15;31.40;99.90
7388;DHT22;3735;50.136;11.062;2023-06-05T13:23:41;30.20;99.90
7388;DHT22;3735;50.136;11.062;2023-06-05T13:26:07;29.10;99.90
7388;DHT22;3735;50.136;11.062;2023-06-05T13:28:33;28.40;99.90
7388;DHT22;3735;50.136;11.062;2023-06-05T13:30:59;28.00;99.90
7388;DHT22;3735;50.136;11.062;2023-06-05T13:33:27;27.50;99.90
7388;DHT22;3735;50.136;11.062;2023-06-05T13:35:52;27.10;99.90
7388;DHT22;3735;50.136;11.062;2023-06-05T13:38:21;26.90;99.90
7388;DHT22;3735;50.136;11.062;2023-06-05T13:40:48;26.80;99.90
7388;DHT22;3735;50.136;11.062;2023-06-05T13:43:17;26.90;99.90
7388;DHT22;3735;50.136;11.062;2023-06-05T13:45:43;27.00;99.90
7388;DHT22;3735;50.136;11.062;2023-06-05T13:48:10;26.80;99.90
7388;DHT22;3735;50.136;11.062;2023-06-05T13:50:36;26.80;99.90
7388;DHT22;3735;50.136;11.062;2023-06-05T13:53:02;26.90;99.90
7388;DHT22;3735;50.136;11.062;2023-06-05T13:55:28;26.90;99.90
7388;DHT22;3735;50.136;11.062;2023-06-05T13:57:54;27.50;99.90
7388;DHT22;3735;50.136;11.062;2023-06-05T14:00:26;28.10;99.90
7388;DHT22;3735;50.136;11.062;2023-06-05T14:02:57;28.90;99.90
7388;DHT22;3735;50.136;11.062;2023-06-05T14:05:24;30.60;99.90
7388;DHT22;3735;50.136;11.062;2023-06-05T14:07:52;31.90;99.90
7388;DHT22;3735;50.136;11.062;2023-06-05T14:10:20;33.10;99.90
7388;DHT22;3735;50.136;11.062;2023-06-05T14:12:47;33.80;99.90
7388;DHT22;3735;50.136;11.062;2023-06-05T14:15:13;34.00;99.90
7388;DHT22;3735;50.136;11.062;2023-06-05T14:17:39;34.20;99.90
7388;DHT22;3735;50.136;11.062;2023-06-05T14:20:05;34.60;99.90
7388;DHT22;3735;50.136;11.062;2023-06-05T14:22:32;34.90;99.90
7388;DHT22;3735;50.136;11.062;2023-06-05T14:24:58;33.90;99.90
7388;DHT22;3735;50.136;11.062;2023-06-05T14:27:23;34.10;99.90
7388;DHT22;3735;50.136;11.062;2023-06-05T14:29:49;34.50;99.90
7388;DHT22;3735;50.136;11.062;2023-06-05T14:32:15;34.10;99.90
7388;DHT22;3735;50.136;11.062;2023-06-05T14:34:41;33.40;99.90
7388;DHT22;3735;50.136;11.062;2023-06-05T14:37:06;32.40;99.90
7388;DHT22;3735;50.136;11.062;2023-06-05T14:39:32;31.20;99.90
7388;DHT22;3735;50.136;11.062;2023-06-05T14:41:58;30.10;99.90
7388;DHT22;3735;50.136;11.062;2023-06-05T14:44:24;29.10;99.90
7388;DHT22;3735;50.136;11.062;2023-06-05T14:46:52;28.40;99.90
7388;DHT22;3735;50.136;11.062;2023-06-05T14:49:19;27.90;99.90
7388;DHT22;3735;50.136;11.062;2023-06-05T14:51:45;27.50;99.90
7388;DHT22;3735;50.136;11.062;2023-06-05T14:54:11;27.30;99.90
7388;DHT22;3735;50.136;11.062;2023-06-05T14:56:38;27.90;99.90
7388;DHT22;3735;50.136;11.062;2023-06-05T14:59:04;28.70;99.90
7388;DHT22;3735;50.136;11.062;2023-06-05T15:01:29;30.00;99.90
7388;DHT22;3735;50.136;11.062;2023-06-05T15:03:56;31.10;99.90
7388;DHT22;3735;50.136;11.062;2023-06-05T15:06:22;32.00;99.90
7388;DHT22;3735;50.136;11.062;2023-06-05T15:08:48;32.10;99.90
7388;DHT22;3735;50.136;11.062;2023-06-05T15:11:14;32.40;99.90
7388;DHT22;3735;50.136;11.062;2023-06-05T15:13:40;32.60;99.90
7388;DHT22;3735;50.136;11.062;2023-06-05T15:16:07;32.90;99.90
7388;DHT22;3735;50.136;11.062;2023-06-05T15:18:34;32.90;99.90
7388;DHT22;3735;50.136;11.062;2023-06-05T15:20:59;33.10;99.90
7388;DHT22;3735;50.136;11.062;2023-06-05T15:23:25;33.40;99.90
7388;DHT22;3735;50.136;11.062;2023-06-05T15:25:51;33.60;99.90
7388;DHT22;3735;50.136;11.062;2023-06-05T15:28:17;32.70;99.90
7388;DHT22;3735;50.136;11.062;2023-06-05T15:30:43;32.00;99.90
7388;DHT22;3735;50.136;11.062;2023-06-05T15:33:09;30.90;99.90
7388;DHT22;3735;50.136;11.062;2023-06-05T15:35:36;30.70;99.90
7388;DHT22;3735;50.136;11.062;2023-06-05T15:38:08;31.20;99.90
7388;DHT22;3735;50.136;11.062;2023-06-05T15:40:34;30.60;99.90
7388;DHT22;3735;50.136;11.062;2023-06-05T15:43:06;29.60;99.90
7388;DHT22;3735;50.136;11.062;2023-06-05T15:45:38;29.80;99.90
7388;DHT22;3735;50.136;11.062;2023-06-05T15:48:05;30.20;99.90
7388;DHT22;3735;50.136;11.062;2023-06-05T15:50:32;29.80;99.90
7388;DHT22;3735;50.136;11.062;2023-06-05T15:52:58;29.60;99.90
7388;DHT22;3735;50.136;11.062;2023-06-05T15:55:24;29.20;99.90
7388;DHT22;3735;50.136;11.062;2023-06-05T15:57:50;28.90;99.90
7388;DHT22;3735;50.136;11.062;2023-06-05T16:00:18;28.80;99.90
7388;DHT22;3735;50.136;11.062;2023-06-05T16:02:45;29.00;99.90
7388;DHT22;3735;50.136;11.062;2023-06-05T16:05:11;29.20;99.90
7388;DHT22;3735;50.136;11.062;2023-06-05T16:07:37;29.30;99.90
7388;DHT22;3735;50.136;11.062;2023-06-05T16:10:04;29.20;99.90
7388;DHT22;3735;50.136;11.062;2023-06-05T16:12:30;29.00;99.90
7388;DHT22;3735;50.136;11.062;2023-06-05T16:14:56;29.00;99.90
7388;DHT22;3735;50.136;11.062;2023-06-05T16:17:22;28.70;99.90
7388;DHT22;3735;50.136;11.062;2023-06-05T16:19:48;28.70;99.90
7388;DHT22;3735;50.136;11.062;2023-06-05T16:22:14;28.60;99.90
7388;DHT22;3735;50.136;11.062;2023-06-05T16:24:43;28.70;99.90
7388;DHT22;3735;50.136;11.062;2023-06-05T16:27:10;28.60;99.90
7388;DHT22;3735;50.136;11.062;2023-06-05T16:29:36;28.70;99.90
7388;DHT22;3735;50.136;11.062;2023-06-05T16:32:01;28.50;99.90
7388;DHT22;3735;50.136;11.062;2023-06-05T16:34:27;28.30;99.90